Time;durP1;ratioP1;P1;durP2;ratioP2;P2;SDS_P1;SDS_P2;PMS_P1;PMS_P2;Temp;Humidity;BMP_temperature;BMP_pressure;BME280_temperature;BME280_humidity;BME280_pressure;Samples;Min_cycle;Max_cycle;Signal;HPM_P1;HPM_P2
2022/05/11 00:00:40;;;;;;;3.83;3.53;;;21.20;58.50;;;;;;4973936;28;20071;-51
2022/05/11 00:03:07;;;;;;;5.18;3.22;;;21.20;58.60;;;;;;4971898;28;20087;-51
2022/05/11 00:05:34;;;;;;;3.85;3.00;;;21.20;58.80;;;;;;4971822;28;20106;-49
2022/05/11 00:08:05;;;;;;;4.10;3.25;;;21.10;58.60;;;;;;4972758;28;20045;-50
2022/05/11 00:10:34;;;;;;;4.50;2.95;;;21.10;58.70;;;;;;4973624;28;20102;-53
2022/05/11 00:13:00;;;;;;;3.13;2.80;;;21.10;58.70;;;;;;4969999;28;20039;-54
2022/05/11 00:15:28;;;;;;;3.08;2.72;;;21.10;58.80;;;;;;4970166;28;20069;-52
2022/05/11 00:17:59;;;;;;;3.33;3.00;;;21.10;58.90;;;;;;4967828;28;20102;-52
2022/05/11 00:20:27;;;;;;;3.53;2.47;;;21.00;58.90;;;;;;4973437;28;20039;-53
2022/05/11 00:22:56;;;;;;;3.25;2.92;;;21.00;58.40;;;;;;4970001;28;20106;-52
2022/05/11 00:25:29;;;;;;;3.00;2.22;;;21.00;58.30;;;;;;4973171;28;20061;-53
2022/05/11 00:27:57;;;;;;;2.97;2.22;;;21.00;58.50;;;;;;4972577;28;20047;-51
2022/05/11 00:30:26;;;;;;;3.22;2.58;;;21.00;58.30;;;;;;4971736;28;20043;-51
2022/05/11 00:32:57;;;;;;;4.53;2.58;;;20.90;58.00;;;;;;4970075;28;20114;-49
2022/05/11 00:35:26;;;;;;;2.33;2.13;;;20.90;57.80;;;;;;4969012;28;20419;-52
2022/05/11 00:37:54;;;;;;;3.00;2.05;;;20.90;57.50;;;;;;4973459;28;20035;-50
2022/05/11 00:40:24;;;;;;;3.47;2.40;;;20.90;57.20;;;;;;4972338;28;20042;-53
2022/05/11 00:42:54;;;;;;;3.30;2.00;;;20.90;56.80;;;;;;4971638;28;20058;-52
2022/05/11 00:45:21;;;;;;;2.88;2.05;;;21.00;56.40;;;;;;4966036;28;20043;-50
2022/05/11 00:49:33;;;;;;;2.50;1.55;;;20.90;55.60;;;;;;4973327;28;20070;-52
2022/05/11 00:50:52;;;;;;;2.70;1.98;;;20.90;55.50;;;;;;4950412;28;20039;-52
2022/05/11 00:53:19;;;;;;;3.97;2.03;;;20.90;55.00;;;;;;4970758;28;20070;-50
2022/05/11 00:55:50;;;;;;;2.33;1.98;;;20.90;55.00;;;;;;4972655;28;20046;-48
2022/05/11 00:58:24;;;;;;;4.72;2.35;;;21.00;54.00;;;;;;4973326;28;20053;-52
2022/05/11 01:00:53;;;;;;;3.10;1.73;;;21.00;54.10;;;;;;4967163;28;20147;-49
2022/05/11 01:03:31;;;;;;;2.10;1.75;;;21.00;53.90;;;;;;4972074;28;20407;-49
2022/05/11 01:05:59;;;;;;;2.35;1.92;;;21.00;53.40;;;;;;4972328;28;20043;-52
2022/05/11 01:08:28;;;;;;;4.05;2.53;;;21.00;53.20;;;;;;4966383;28;20085;-51
2022/05/11 01:10:55;;;;;;;2.55;1.65;;;21.00;53.70;;;;;;4968697;28;20103;-51
2022/05/11 01:13:22;;;;;;;2.72;2.03;;;21.00;53.90;;;;;;4972084;28;20530;-50
2022/05/11 01:15:54;;;;;;;2.65;1.88;;;21.00;53.90;;;;;;4971186;28;20618;-52
2022/05/11 01:18:24;;;;;;;3.88;1.98;;;20.90;54.00;;;;;;4969108;28;20047;-52
2022/05/11 01:20:52;;;;;;;2.33;2.00;;;20.90;53.60;;;;;;4972692;28;20114;-52
2022/05/11 01:23:48;;;;;;;2.30;2.10;;;20.90;53.30;;;;;;4970939;28;20286;-50
2022/05/11 01:26:18;;;;;;;3.22;2.33;;;20.90;53.40;;;;;;4972361;28;20039;-52
2022/05/11 01:28:49;;;;;;;5.00;2.83;;;20.90;52.70;;;;;;4968821;28;20199;-50
2022/05/11 01:31:17;;;;;;;2.15;1.70;;;20.80;52.70;;;;;;4972092;28;20065;-52
2022/05/11 01:33:50;;;;;;;4.75;2.70;;;20.80;52.90;;;;;;4972228;28;20068;-49
2022/05/11 01:36:31;;;;;;;2.70;2.42;;;20.80;52.70;;;;;;4965074;28;20549;-53
2022/05/11 01:39:06;;;;;;;4.82;2.90;;;20.80;52.80;;;;;;4966574;28;20451;-49
2022/05/11 01:41:39;;;;;;;5.07;2.65;;;20.70;53.00;;;;;;4953036;29;20252;-49
2022/05/11 01:44:14;;;;;;;7.05;3.35;;;20.80;52.80;;;;;;4942730;29;20523;-51
2022/05/11 01:46:45;;;;;;;3.50;3.10;;;20.70;53.00;;;;;;4958984;28;20082;-48
2022/05/11 01:49:21;;;;;;;4.15;3.33;;;20.60;53.20;;;;;;4971841;28;20557;-52
2022/05/11 01:51:55;;;;;;;4.43;3.50;;;20.60;53.50;;;;;;4965770;28;20047;-49
2022/05/11 01:54:25;;;;;;;7.22;4.47;;;20.60;53.50;;;;;;4970507;28;20077;-53
2022/05/11 01:56:52;;;;;;;5.93;4.03;;;20.50;53.20;;;;;;4965655;28;20042;-52
2022/05/11 01:59:25;;;;;;;4.47;3.58;;;20.50;53.30;;;;;;4954394;28;20601;-51
2022/05/11 02:01:55;;;;;;;9.03;4.30;;;20.50;53.50;;;;;;4970219;28;20039;-47
2022/05/11 02:10:05;;;;;;;5.47;4.60;;;20.60;53.70;;;;;;4971864;28;20046;-52
2022/05/11 02:12:36;;;;;;;5.45;4.90;;;20.50;53.70;;;;;;4971219;28;20034;-52
2022/05/11 02:15:07;;;;;;;8.23;4.80;;;20.50;54.20;;;;;;4968804;28;20050;-52
2022/05/11 02:17:36;;;;;;;5.20;4.65;;;20.50;53.80;;;;;;4969062;28;20053;-53
2022/05/11 02:20:03;;;;;;;9.18;5.38;;;20.40;53.70;;;;;;4971368;28;20043;-50
2022/05/11 02:22:30;;;;;;;8.57;5.00;;;20.50;54.00;;;;;;4971458;28;20066;-52
2022/05/11 02:24:57;;;;;;;6.07;5.20;;;20.40;54.10;;;;;;4965242;28;20097;-50
2022/05/11 02:27:23;;;;;;;5.75;4.15;;;20.40;54.20;;;;;;4971770;28;20530;-53
2022/05/11 02:29:52;;;;;;;5.35;4.47;;;20.40;54.10;;;;;;4971342;28;20106;-52
2022/05/11 02:32:22;;;;;;;6.47;4.57;;;20.40;54.20;;;;;;4967556;28;20126;-52
2022/05/11 02:37:42;;;;;;;8.35;5.10;;;20.40;54.00;;;;;;4971373;28;20050;-52
2022/05/11 02:40:13;;;;;;;5.70;4.18;;;20.40;53.90;;;;;;4969869;28;20042;-51
2022/05/11 02:42:42;;;;;;;6.70;4.90;;;20.30;54.10;;;;;;4967206;28;20039;-50
2022/05/11 02:45:09;;;;;;;6.13;4.78;;;20.30;54.10;;;;;;4970566;28;20039;-49
2022/05/11 02:47:37;;;;;;;7.90;5.25;;;20.30;54.10;;;;;;4963973;28;20046;-49
2022/05/11 02:50:05;;;;;;;12.30;5.25;;;20.30;54.00;;;;;;4970761;28;20070;-50
2022/05/11 02:52:33;;;;;;;8.05;5.45;;;20.20;54.10;;;;;;4965505;28;20043;-50
2022/05/11 02:55:04;;;;;;;6.13;4.60;;;20.20;54.00;;;;;;4969981;28;20043;-52
2022/05/11 02:57:31;;;;;;;5.53;5.00;;;20.20;53.90;;;;;;4971153;28;20129;-52
2022/05/11 03:00:03;;;;;;;5.47;4.43;;;20.20;54.00;;;;;;4971173;28;20523;-51
2022/05/11 03:02:30;;;;;;;7.88;5.13;;;20.20;54.10;;;;;;4967387;28;20051;-53
2022/05/11 03:05:02;;;;;;;7.10;4.82;;;20.20;54.10;;;;;;4970051;28;20031;-51
2022/05/11 03:07:29;;;;;;;5.18;4.57;;;20.20;54.10;;;;;;4971064;28;20051;-51
2022/05/11 03:09:59;;;;;;;6.00;5.18;;;20.20;54.20;;;;;;4967182;28;20038;-52
2022/05/11 03:12:28;;;;;;;9.90;5.47;;;20.20;54.40;;;;;;4969846;28;20067;-49
2022/05/11 03:14:57;;;;;;;5.43;4.53;;;20.10;54.40;;;;;;4970597;28;20050;-52
2022/05/11 03:17:24;;;;;;;8.05;5.00;;;20.10;54.60;;;;;;4969812;28;20055;-51
2022/05/11 03:19:53;;;;;;;7.50;5.15;;;20.10;54.60;;;;;;4961441;28;20122;-48
2022/05/11 03:22:25;;;;;;;7.85;5.00;;;20.10;55.20;;;;;;4970268;28;20054;-51
2022/05/11 03:24:52;;;;;;;7.22;6.35;;;20.10;54.50;;;;;;4969753;28;20094;-52
2022/05/11 03:27:20;;;;;;;7.45;4.97;;;20.10;54.30;;;;;;4968769;28;20105;-51
2022/05/11 03:29:48;;;;;;;10.25;5.18;;;20.10;55.10;;;;;;4970696;28;20047;-51
2022/05/11 03:35:08;;;;;;;6.25;4.55;;;20.10;55.40;;;;;;4966526;28;20081;-51
2022/05/11 03:37:39;;;;;;;9.52;5.40;;;20.00;55.10;;;;;;4997082;23;20101;-55
2022/05/11 03:40:08;;;;;;;9.10;5.55;;;20.00;55.20;;;;;;5047472;28;20060;-48
2022/05/11 03:42:40;;;;;;;6.13;5.50;;;19.90;55.20;;;;;;5044222;28;20033;-52
2022/05/11 03:45:19;;;;;;;6.28;5.60;;;19.90;55.30;;;;;;5049276;28;20044;-50
2022/05/11 03:47:47;;;;;;;7.90;5.88;;;19.80;55.60;;;;;;5037111;28;20404;-48
2022/05/11 03:50:15;;;;;;;6.82;6.05;;;19.80;55.40;;;;;;5058483;28;20535;-50
2022/05/11 03:52:45;;;;;;;8.45;6.18;;;19.80;55.60;;;;;;5049855;28;20045;-50
2022/05/11 03:55:12;;;;;;;14.25;6.28;;;19.60;55.80;;;;;;5049636;28;20052;-50
2022/05/11 03:57:41;;;;;;;6.28;5.57;;;19.60;55.90;;;;;;5060205;28;20043;-47
2022/05/11 04:00:14;;;;;;;7.65;5.78;;;19.60;56.10;;;;;;5073609;28;20766;-47
2022/05/11 04:02:45;;;;;;;9.93;5.70;;;19.50;56.00;;;;;;5066557;28;20029;-50
2022/05/11 04:05:13;;;;;;;9.73;4.95;;;19.50;56.10;;;;;;5067759;28;20043;-50
2022/05/11 04:07:41;;;;;;;9.18;5.30;;;19.40;56.50;;;;;;5070922;28;20048;-46
2022/05/11 04:10:09;;;;;;;8.75;5.07;;;19.40;56.50;;;;;;5065276;28;20040;-47
2022/05/11 04:12:37;;;;;;;7.65;5.13;;;19.40;57.30;;;;;;5073304;28;20127;-50
2022/05/11 04:15:12;;;;;;;8.95;5.55;;;19.30;56.70;;;;;;5070728;28;20040;-47
2022/05/11 04:17:43;;;;;;;6.53;4.65;;;19.30;57.00;;;;;;5072684;28;20103;-50
2022/05/11 04:20:16;;;;;;;8.52;4.95;;;19.30;56.60;;;;;;5065082;28;20052;-50
2022/05/11 04:22:46;;;;;;;5.28;4.65;;;19.20;56.70;;;;;;5051777;28;20075;-49
2022/05/11 04:25:17;;;;;;;7.32;5.18;;;19.20;56.70;;;;;;5056433;28;20051;-49
2022/05/11 04:27:48;;;;;;;7.90;5.13;;;19.10;56.70;;;;;;5058117;28;20473;-48
2022/05/11 04:30:18;;;;;;;5.40;4.70;;;19.10;57.20;;;;;;5072185;28;20044;-48
2022/05/11 04:32:46;;;;;;;8.25;5.38;;;19.10;57.30;;;;;;5052760;28;20044;-47
2022/05/11 04:35:13;;;;;;;10.25;6.03;;;19.00;57.40;;;;;;5060473;28;20119;-50
2022/05/11 04:37:39;;;;;;;10.77;6.35;;;19.00;57.60;;;;;;5068549;28;20036;-48
2022/05/11 04:40:08;;;;;;;7.50;6.45;;;19.00;57.50;;;;;;5064270;28;20064;-49
2022/05/11 04:42:42;;;;;;;10.40;7.18;;;19.00;57.60;;;;;;5065194;28;20040;-49
2022/05/11 04:45:09;;;;;;;8.05;6.07;;;19.00;57.90;;;;;;5051525;28;20111;-52
2022/05/11 04:47:38;;;;;;;7.25;5.97;;;19.00;57.80;;;;;;5063039;28;20045;-51
2022/05/11 04:50:05;;;;;;;8.55;6.65;;;19.00;57.70;;;;;;5066988;28;20044;-52
2022/05/11 04:52:32;;;;;;;9.02;6.15;;;19.00;57.70;;;;;;5057254;28;20045;-51
2022/05/11 04:54:59;;;;;;;8.88;6.57;;;19.10;58.00;;;;;;5059367;28;20065;-52
2022/05/11 04:57:26;;;;;;;8.95;6.13;;;19.10;58.20;;;;;;5060990;28;20952;-53
2022/05/11 04:59:56;;;;;;;8.73;6.35;;;19.10;58.20;;;;;;5069445;28;20036;-51
2022/05/11 05:02:25;;;;;;;9.40;6.63;;;19.10;58.20;;;;;;5067538;28;20713;-50
2022/05/11 05:04:56;;;;;;;7.70;6.30;;;19.20;58.20;;;;;;5056364;28;20094;-50
2022/05/11 05:07:23;;;;;;;6.63;6.00;;;19.20;58.30;;;;;;5051265;28;20055;-53
2022/05/11 05:09:50;;;;;;;8.48;6.55;;;19.20;58.20;;;;;;5056976;28;20051;-51
2022/05/11 05:12:17;;;;;;;8.30;6.45;;;19.20;58.10;;;;;;5067037;28;20076;-48
2022/05/11 05:14:44;;;;;;;8.05;6.38;;;19.20;58.10;;;;;;5067349;28;20079;-52
2022/05/11 05:17:15;;;;;;;7.53;6.20;;;19.30;58.10;;;;;;5068659;28;20044;-50
2022/05/11 05:19:44;;;;;;;6.25;5.28;;;19.30;57.60;;;;;;5068255;28;20040;-51
2022/05/11 05:22:11;;;;;;;7.05;5.13;;;19.30;57.50;;;;;;5065653;28;20086;-48
2022/05/11 05:24:38;;;;;;;5.55;4.93;;;19.30;57.60;;;;;;5062646;28;20121;-53
2022/05/11 05:27:05;;;;;;;6.40;4.38;;;19.30;57.50;;;;;;5048747;28;20048;-50
2022/05/11 05:32:18;;;;;;;5.88;4.70;;;19.30;56.40;;;;;;5066739;28;20068;-49
2022/05/11 05:34:45;;;;;;;7.32;4.40;;;19.40;56.20;;;;;;5063440;28;20337;-52
2022/05/11 05:37:14;;;;;;;6.22;4.45;;;19.40;56.20;;;;;;5068746;28;20048;-53
2022/05/11 05:39:41;;;;;;;5.32;4.40;;;19.40;56.10;;;;;;5067506;28;20037;-48
2022/05/11 05:42:09;;;;;;;6.20;4.18;;;19.40;55.60;;;;;;5069343;28;20090;-53
2022/05/11 05:44:37;;;;;;;4.53;3.80;;;19.40;55.60;;;;;;5055819;28;20527;-49
2022/05/11 05:47:06;;;;;;;5.75;3.50;;;19.50;55.30;;;;;;5069194;28;20048;-52
2022/05/11 05:49:36;;;;;;;;;;;19.50;55.00;;;;;;5063208;28;20083;-51
2022/05/11 05:52:04;;;;;;;6.05;3.70;;;19.60;55.00;;;;;;5051343;28;19921;-50
2022/05/11 05:54:32;;;;;;;3.67;2.83;;;19.60;54.60;;;;;;5048949;28;20064;-49
2022/05/11 05:56:59;;;;;;;4.75;3.33;;;19.70;54.40;;;;;;5049318;28;20063;-52
2022/05/11 05:59:26;;;;;;;3.30;3.03;;;19.70;54.40;;;;;;5052154;28;20110;-52
2022/05/11 06:01:55;;;;;;;5.35;2.83;;;19.70;54.20;;;;;;5063112;28;20032;-50
2022/05/11 06:04:22;;;;;;;4.45;3.03;;;19.70;54.10;;;;;;5054264;28;20329;-52
2022/05/11 06:06:49;;;;;;;5.53;3.10;;;19.80;54.20;;;;;;5059977;28;20500;-54
2022/05/11 06:09:16;;;;;;;3.45;2.72;;;19.80;54.30;;;;;;5060923;28;20492;-50
2022/05/11 06:11:44;;;;;;;5.75;2.58;;;19.90;54.40;;;;;;5063741;28;20068;-51
2022/05/11 06:14:11;;;;;;;4.75;3.22;;;19.90;54.40;;;;;;5066010;28;20040;-52
2022/05/11 06:16:37;;;;;;;4.53;2.45;;;19.90;54.50;;;;;;5057993;28;20038;-51
2022/05/11 06:19:05;;;;;;;4.10;2.90;;;20.00;54.30;;;;;;5065283;28;20044;-51
2022/05/11 06:21:34;;;;;;;4.05;2.75;;;20.00;54.40;;;;;;5061129;28;20045;-52
2022/05/11 06:24:01;;;;;;;3.83;3.40;;;20.10;54.00;;;;;;5068966;28;20036;-53
2022/05/11 06:26:28;;;;;;;4.72;3.40;;;20.10;53.60;;;;;;5067944;28;20040;-56
2022/05/11 06:29:15;;;;;;;5.80;3.33;;;20.10;53.50;;;;;;5064707;28;20048;-51
2022/05/11 06:31:42;;;;;;;3.63;3.33;;;20.20;53.60;;;;;;5060166;28;20033;-49
2022/05/11 06:34:08;;;;;;;3.85;3.50;;;20.30;53.60;;;;;;5069465;28;20389;-53
2022/05/11 06:36:35;;;;;;;5.05;3.58;;;20.20;53.40;;;;;;5067787;28;20067;-52
2022/05/11 06:39:02;;;;;;;5.97;3.35;;;20.30;53.40;;;;;;5065225;28;20554;-49
2022/05/11 06:41:29;;;;;;;4.47;3.67;;;20.30;53.20;;;;;;5060073;28;20045;-53
2022/05/11 06:43:56;;;;;;;4.55;3.75;;;20.30;53.70;;;;;;5069096;28;20630;-53
2022/05/11 06:46:23;;;;;;;6.13;3.92;;;20.40;53.70;;;;;;5067444;28;20102;-51
2022/05/11 06:48:50;;;;;;;8.02;3.70;;;20.40;53.70;;;;;;5069719;28;20808;-52
2022/05/11 06:51:19;;;;;;;3.78;3.30;;;20.40;53.30;;;;;;5053049;28;20400;-55
2022/05/11 06:59:26;;;;;;;4.15;3.35;;;20.50;53.00;;;;;;5032490;28;20057;-53
2022/05/11 07:01:57;;;;;;;5.93;3.57;;;20.60;52.80;;;;;;5068685;28;20078;-51
2022/05/11 07:04:25;;;;;;;5.93;3.03;;;20.60;52.80;;;;;;5058629;28;20657;-51
2022/05/11 07:06:56;;;;;;;4.93;2.60;;;20.60;52.80;;;;;;5068337;28;20070;-50
2022/05/11 07:09:25;;;;;;;3.80;2.78;;;20.70;52.90;;;;;;5061689;28;20500;-49
2022/05/11 07:14:39;;;;;;;6.28;2.75;;;20.80;52.30;;;;;;5067171;28;20539;-51
2022/05/11 07:17:06;;;;;;;3.40;2.28;;;20.80;51.90;;;;;;5060126;28;20403;-53
2022/05/11 07:19:33;;;;;;;4.30;2.72;;;20.80;52.00;;;;;;5049527;28;20102;-49
2022/05/11 07:22:01;;;;;;;2.95;2.35;;;20.90;52.10;;;;;;5058086;28;20480;-51
2022/05/11 07:24:28;;;;;;;5.88;2.70;;;20.90;51.70;;;;;;5068175;28;20068;-53
2022/05/11 07:26:55;;;;;;;4.68;1.88;;;20.90;51.40;;;;;;5061871;28;20048;-52
2022/05/11 07:29:22;;;;;;;4.20;2.30;;;21.00;51.50;;;;;;5067523;28;20079;-51
2022/05/11 07:31:49;;;;;;;3.08;2.47;;;21.00;51.40;;;;;;5069494;28;20044;-52
2022/05/11 07:34:16;;;;;;;6.25;2.60;;;21.10;51.30;;;;;;5073030;28;20071;-50
2022/05/11 07:36:43;;;;;;;2.35;1.70;;;21.10;51.20;;;;;;5064770;28;20102;-48
2022/05/11 07:39:10;;;;;;;4.10;1.92;;;21.20;51.10;;;;;;5072003;28;20049;-50
2022/05/11 07:41:39;;;;;;;3.08;2.10;;;21.20;51.20;;;;;;5069408;28;20029;-53
2022/05/11 07:44:06;;;;;;;1.92;1.77;;;21.20;50.50;;;;;;5067864;28;20033;-49
2022/05/11 07:46:36;;;;;;;4.40;2.47;;;21.20;50.50;;;;;;5059945;28;20565;-51
2022/05/11 07:49:04;;;;;;;4.32;2.17;;;21.30;50.50;;;;;;5065033;28;20436;-51
2022/05/11 07:51:32;;;;;;;2.00;1.50;;;21.30;50.50;;;;;;5054626;28;20049;-54
2022/05/11 07:53:59;;;;;;;3.47;2.05;;;21.30;50.90;;;;;;5063681;28;20047;-54
2022/05/11 08:01:57;;;;;;;3.80;1.83;;;21.50;50.30;;;;;;5057447;28;20048;-50
2022/05/11 08:04:24;;;;;;;2.10;1.60;;;21.50;50.10;;;;;;5058988;28;20045;-52
2022/05/11 08:06:50;;;;;;;1.95;1.73;;;21.50;49.90;;;;;;5055689;28;20107;-49
2022/05/11 08:09:17;;;;;;;2.70;1.10;;;21.60;49.90;;;;;;5052602;28;20496;-52
2022/05/11 08:11:45;;;;;;;4.95;1.80;;;21.60;50.30;;;;;;5065275;28;20040;-49
2022/05/11 08:14:14;;;;;;;2.38;1.30;;;21.60;49.50;;;;;;5062925;28;20045;-54
2022/05/11 08:16:42;;;;;;;1.90;1.40;;;21.60;49.80;;;;;;5065491;28;20041;-50
2022/05/11 08:19:09;;;;;;;1.85;1.65;;;21.70;49.60;;;;;;5070738;28;20446;-51
2022/05/11 08:21:36;;;;;;;5.20;1.77;;;21.70;49.40;;;;;;5057439;28;20500;-52
2022/05/11 08:24:03;;;;;;;2.15;1.40;;;21.70;49.00;;;;;;5060947;28;20048;-51
2022/05/11 08:26:30;;;;;;;3.78;1.60;;;21.80;49.20;;;;;;5048007;28;20143;-52
2022/05/11 08:28:57;;;;;;;3.70;1.58;;;21.80;48.80;;;;;;5065018;28;20048;-53
2022/05/11 08:34:09;;;;;;;2.53;1.80;;;21.90;48.50;;;;;;5056279;28;20045;-51
2022/05/11 08:36:37;;;;;;;1.70;1.30;;;21.90;48.30;;;;;;5062666;28;20572;-50
2022/05/11 08:39:04;;;;;;;1.92;1.50;;;21.90;48.90;;;;;;5064998;28;20037;-53
2022/05/11 08:41:48;;;;;;;1.45;1.27;;;22.00;48.40;;;;;;5063469;28;20051;-56
2022/05/11 08:44:18;;;;;;;4.82;2.00;;;22.00;48.10;;;;;;5054515;28;20122;-55
2022/05/11 08:46:47;;;;;;;3.00;1.55;;;22.10;48.60;;;;;;5058565;28;20029;-53
2022/05/11 08:49:21;;;;;;;2.40;1.38;;;22.10;48.60;;;;;;5071449;28;20044;-51
2022/05/11 08:51:59;;;;;;;4.75;1.27;;;22.10;48.20;;;;;;5063401;28;20067;-53
2022/05/11 08:54:28;;;;;;;1.40;1.30;;;22.20;48.10;;;;;;5059371;28;20110;-54
2022/05/11 08:56:55;;;;;;;5.13;1.30;;;22.20;48.80;;;;;;5067028;28;20608;-49
2022/05/11 08:59:28;;;;;;;1.58;1.25;;;22.30;48.20;;;;;;5049009;28;20678;-52
2022/05/11 09:02:06;;;;;;;3.80;1.33;;;22.30;48.00;;;;;;5065778;28;20032;-52
2022/05/11 09:04:50;;;;;;;4.53;1.25;;;22.30;47.70;;;;;;5065452;28;20044;-54
2022/05/11 09:07:17;;;;;;;1.90;1.58;;;22.30;47.40;;;;;;5043419;28;20676;-52
2022/05/11 09:09:44;;;;;;;2.50;2.08;;;22.40;48.00;;;;;;5066007;28;20040;-51
2022/05/11 09:12:12;;;;;;;3.40;1.63;;;22.40;47.50;;;;;;5067735;28;20059;-51
2022/05/11 09:14:49;;;;;;;3.22;2.08;;;22.40;47.70;;;;;;5051176;28;20041;-48
2022/05/11 09:17:26;;;;;;;3.58;1.92;;;22.50;48.20;;;;;;5056995;28;20064;-55
2022/05/11 09:20:09;;;;;;;3.00;2.00;;;22.50;47.80;;;;;;5051029;28;20037;-49
2022/05/11 09:22:41;;;;;;;2.67;1.55;;;22.60;47.60;;;;;;5049878;28;20040;-54
2022/05/11 09:25:21;;;;;;;4.38;2.13;;;22.60;46.90;;;;;;5060010;28;20091;-52
2022/05/11 09:27:49;;;;;;;3.65;1.90;;;22.70;48.00;;;;;;5045711;28;20047;-53
2022/05/11 09:30:19;;;;;;;3.63;1.38;;;22.70;47.50;;;;;;5067769;28;20036;-49
2022/05/11 09:32:53;;;;;;;3.42;1.27;;;22.70;48.20;;;;;;5069666;28;20115;-53
2022/05/11 09:35:23;;;;;;;;;;;22.80;47.90;;;;;;5064132;28;20531;-49
2022/05/11 09:38:07;;;;;;;6.07;2.40;;;22.90;47.80;;;;;;5064579;28;19921;-51
2022/05/11 09:40:50;;;;;;;7.20;3.10;;;22.90;46.50;;;;;;5068959;28;20052;-51
2022/05/11 09:43:46;;;;;;;3.58;2.08;;;23.00;47.10;;;;;;5057064;28;20523;-52
2022/05/11 09:46:27;;;;;;;2.55;1.90;;;23.00;47.00;;;;;;5063547;28;20064;-49
2022/05/11 09:49:06;;;;;;;2.87;1.90;;;23.10;46.20;;;;;;5056134;28;20082;-50
2022/05/11 09:51:39;;;;;;;4.03;2.00;;;23.10;46.40;;;;;;5052229;28;20368;-49
2022/05/11 09:54:12;;;;;;;2.28;1.80;;;23.10;47.10;;;;;;5046797;28;20032;-53
2022/05/11 09:56:49;;;;;;;5.05;2.10;;;23.10;47.10;;;;;;5060938;28;20041;-50
2022/05/11 09:59:22;;;;;;;3.92;2.30;;;23.20;47.00;;;;;;5061892;23;20458;-48
2022/05/11 10:02:01;;;;;;;2.30;2.10;;;23.20;46.20;;;;;;4977211;28;20039;-57
2022/05/11 10:04:50;;;;;;;3.22;2.10;;;23.30;46.30;;;;;;4988212;28;20034;-48
2022/05/11 10:07:19;;;;;;;2.42;2.10;;;23.40;46.50;;;;;;4993762;28;20238;-52
2022/05/11 10:09:54;;;;;;;8.15;2.22;;;23.40;46.70;;;;;;5000010;28;20042;-51
2022/05/11 10:12:27;;;;;;;3.42;1.85;;;23.50;46.40;;;;;;4991085;28;20761;-51
2022/05/11 10:23:41;;;;;;;5.25;1.55;;;23.70;45.90;;;;;;4997607;28;20180;-48
2022/05/11 10:26:18;;;;;;;3.00;1.90;;;23.80;47.10;;;;;;4988553;28;20469;-52
2022/05/11 10:28:53;;;;;;;6.95;1.70;;;23.80;45.50;;;;;;4988381;28;20077;-53
2022/05/11 10:31:26;;;;;;;3.60;1.98;;;23.90;45.40;;;;;;4987668;28;20148;-48
2022/05/11 10:34:40;;;;;;;2.10;1.90;;;24.00;45.00;;;;;;4995601;28;20057;-52
2022/05/11 10:37:15;;;;;;;3.25;1.92;;;24.00;45.00;;;;;;4982051;28;20116;-51
2022/05/11 10:40:11;;;;;;;3.40;1.60;;;24.10;45.20;;;;;;5002915;28;20057;-50
2022/05/11 10:43:05;;;;;;;1.70;1.60;;;24.10;45.00;;;;;;5003563;28;20508;-49
2022/05/11 10:45:43;;;;;;;11.02;3.30;;;24.20;44.60;;;;;;4988645;28;20039;-55
2022/05/11 10:48:38;;;;;;;4.25;2.03;;;24.20;44.50;;;;;;4982051;28;20502;-55
2022/05/11 10:51:22;;;;;;;3.70;1.65;;;24.30;44.70;;;;;;4989149;28;20045;-55
2022/05/11 10:54:18;;;;;;;4.57;1.92;;;24.30;44.40;;;;;;4988411;28;20582;-52
2022/05/11 10:57:09;;;;;;;6.03;1.90;;;24.30;43.80;;;;;;4990444;28;20046;-49
2022/05/11 11:00:07;;;;;;;2.85;2.40;;;24.40;44.00;;;;;;4989396;28;20050;-50
2022/05/11 11:02:48;;;;;;;2.10;1.88;;;24.40;43.20;;;;;;5001795;28;20038;-51
2022/05/11 11:05:36;;;;;;;2.80;1.65;;;24.50;43.50;;;;;;4989414;28;20067;-54
2022/05/11 11:08:18;;;;;;;7.57;1.95;;;24.50;43.70;;;;;;4991704;28;20715;-51
2022/05/11 11:10:59;;;;;;;3.28;2.08;;;24.50;44.00;;;;;;4996831;28;20077;-50
2022/05/11 11:13:50;;;;;;;3.20;2.00;;;24.60;44.00;;;;;;5008706;28;20105;-50
2022/05/11 11:16:17;;;;;;;3.28;2.35;;;24.70;44.00;;;;;;4978125;28;20070;-48
2022/05/11 11:18:49;;;;;;;5.57;2.47;;;24.70;43.60;;;;;;4997082;28;20038;-52
2022/05/11 11:21:19;;;;;;;4.80;1.90;;;24.80;44.00;;;;;;4995710;28;20038;-52
2022/05/11 11:24:11;;;;;;;2.10;1.75;;;24.80;44.00;;;;;;4979698;28;20561;-52
2022/05/11 11:26:48;;;;;;;2.30;2.10;;;24.90;43.20;;;;;;4988303;28;20042;-53
2022/05/11 11:29:20;;;;;;;2.83;2.20;;;25.00;42.80;;;;;;4995985;28;20110;-51
2022/05/11 11:31:56;;;;;;;3.42;2.40;;;25.00;43.10;;;;;;4997051;28;20081;-53
2022/05/11 11:34:31;;;;;;;2.95;2.08;;;25.10;42.30;;;;;;4999072;28;20050;-50
2022/05/11 11:36:59;;;;;;;11.90;2.72;;;25.20;42.50;;;;;;4996642;28;20042;-50
2022/05/11 11:39:44;;;;;;;5.63;2.08;;;25.20;42.30;;;;;;4989598;28;20482;-51
2022/05/11 11:42:12;;;;;;;4.65;1.98;;;25.30;41.60;;;;;;4988900;28;20490;-51
2022/05/11 11:44:43;;;;;;;4.07;1.83;;;25.30;41.90;;;;;;4989046;28;20046;-48
2022/05/11 11:47:27;;;;;;;5.50;2.28;;;25.40;42.20;;;;;;4972163;28;20058;-50
2022/05/11 11:49:57;;;;;;;2.08;1.92;;;25.40;41.00;;;;;;4989320;28;20191;-52
2022/05/11 11:52:46;;;;;;;3.05;1.83;;;25.50;41.50;;;;;;4999792;28;20383;-56
2022/05/11 11:55:18;;;;;;;2.90;2.10;;;25.60;41.50;;;;;;4986645;28;20046;-51
2022/05/11 11:57:47;;;;;;;7.72;2.20;;;25.60;40.70;;;;;;4987646;28;20065;-52
2022/05/11 12:00:28;;;;;;;3.50;1.83;;;25.70;40.50;;;;;;4991275;28;20046;-53
2022/05/11 12:02:56;;;;;;;4.17;1.97;;;25.70;41.00;;;;;;4984229;28;20561;-54
2022/05/11 12:05:23;;;;;;;3.00;2.13;;;25.80;42.20;;;;;;4990194;28;20406;-52
2022/05/11 12:16:53;;;;;;;2.53;2.05;;;26.20;41.10;;;;;;4995954;28;20105;-50
2022/05/11 12:19:23;;;;;;;3.75;2.30;;;26.30;40.50;;;;;;4993862;28;20491;-53
2022/05/11 12:21:56;;;;;;;3.63;1.92;;;26.40;40.30;;;;;;4992554;28;20097;-53
2022/05/11 12:24:34;;;;;;;3.10;2.08;;;26.50;40.30;;;;;;4993426;28;20043;-52
2022/05/11 12:27:12;;;;;;;2.92;1.88;;;26.60;40.30;;;;;;4998654;28;20061;-53
2022/05/11 12:29:57;;;;;;;2.28;1.92;;;26.70;39.70;;;;;;4990023;28;20054;-51
2022/05/11 12:32:26;;;;;;;3.35;1.92;;;26.80;39.50;;;;;;4989009;28;20424;-50
2022/05/11 12:34:56;;;;;;;4.07;1.60;;;26.90;39.30;;;;;;4993932;28;20038;-52
2022/05/11 12:37:32;;;;;;;2.25;2.10;;;26.90;39.50;;;;;;5002918;28;20038;-50
2022/05/11 12:40:04;;;;;;;3.88;2.10;;;27.00;39.40;;;;;;5011156;28;20045;-52
2022/05/11 12:42:39;;;;;;;2.60;1.90;;;27.10;39.10;;;;;;4998582;28;20375;-54
2022/05/11 12:45:10;;;;;;;6.75;2.03;;;27.20;39.50;;;;;;4998369;28;20072;-50
2022/05/11 12:47:48;;;;;;;6.93;2.03;;;27.30;39.30;;;;;;4990331;28;20042;-48
2022/05/11 12:50:23;;;;;;;4.13;2.00;;;27.40;38.80;;;;;;4973301;28;20054;-50
2022/05/11 12:53:17;;;;;;;5.10;2.13;;;27.40;38.80;;;;;;4990648;28;20046;-56
2022/05/11 12:55:52;;;;;;;2.85;1.85;;;27.60;39.20;;;;;;4992420;28;20046;-55
2022/05/11 12:58:26;;;;;;;2.22;1.80;;;27.70;39.10;;;;;;4935534;28;20042;-49
2022/05/11 13:01:04;;;;;;;2.63;2.25;;;27.80;38.50;;;;;;4987997;28;20723;-52
2022/05/11 13:03:38;;;;;;;1.75;1.52;;;27.90;38.10;;;;;;4972978;28;20121;-52
2022/05/11 13:06:34;;;;;;;2.70;1.90;;;28.00;38.20;;;;;;5003477;28;20099;-49
2022/05/11 13:09:24;;;;;;;3.35;1.60;;;28.10;38.90;;;;;;4970386;28;20034;-54
2022/05/11 13:11:52;;;;;;;2.85;1.40;;;28.20;37.90;;;;;;4990250;28;20058;-50
2022/05/11 13:14:24;;;;;;;4.40;1.95;;;28.40;37.80;;;;;;4999209;28;20462;-49
2022/05/11 13:16:53;;;;;;;;;;;28.50;36.90;;;;;;5004292;28;20101;-51
2022/05/11 13:19:37;;;;;;;1.75;1.25;;;28.60;37.90;;;;;;4990897;28;19930;-52
2022/05/11 13:22:18;;;;;;;4.10;1.45;;;28.80;37.50;;;;;;4986140;28;20421;-50
2022/05/11 13:24:55;;;;;;;3.42;1.48;;;28.90;36.30;;;;;;4996233;28;20058;-51
2022/05/11 13:27:48;;;;;;;2.75;1.30;;;29.00;36.30;;;;;;5011487;28;20050;-49
2022/05/11 13:30:24;;;;;;;3.03;1.30;;;29.30;36.40;;;;;;5002245;28;20061;-53
2022/05/11 13:32:59;;;;;;;7.70;1.48;;;29.70;35.70;;;;;;5003469;28;20065;-50
2022/05/11 13:35:39;;;;;;;3.95;0.93;;;30.30;36.00;;;;;;5010486;28;20096;-50
2022/05/11 13:38:08;;;;;;;2.13;0.73;;;31.10;36.30;;;;;;5005234;28;20061;-52
2022/05/11 13:40:54;;;;;;;3.42;1.00;;;32.00;35.60;;;;;;5000584;28;20041;-50
2022/05/11 13:43:31;;;;;;;3.85;1.23;;;33.00;34.90;;;;;;5002321;28;20038;-49
2022/05/11 13:46:01;;;;;;;3.60;0.88;;;34.20;33.80;;;;;;5008003;28;20046;-53
2022/05/11 13:48:33;;;;;;;1.27;0.80;;;35.10;32.60;;;;;;5000149;28;20042;-51
2022/05/11 13:51:10;;;;;;;1.48;0.98;;;36.00;31.30;;;;;;4997060;28;20034;-53
2022/05/11 13:53:37;;;;;;;3.88;1.58;;;36.70;29.80;;;;;;4991009;28;20568;-50
2022/05/11 13:56:17;;;;;;;2.63;1.05;;;37.40;29.40;;;;;;4971465;28;20714;-52
2022/05/11 13:59:10;;;;;;;1.35;0.88;;;38.00;28.80;;;;;;4996285;28;20097;-54
2022/05/11 14:01:47;;;;;;;1.10;0.88;;;38.60;28.90;;;;;;4991775;28;20527;-50